Time;durP1;ratioP1;P1;durP2;ratioP2;P2;SDS_P1;SDS_P2;PMS_P1;PMS_P2;Temp;Humidity;BMP_temperature;BMP_pressure;BME280_temperature;BME280_humidity;BME280_pressure;Samples;Min_cycle;Max_cycle;Signal;HPM_P1;HPM_P2
2022/10/14 00:03:18;;;;;;;19.33;12.57;;;;;;;14.21;100.00;100585.31;8318570;28;20064;-51
2022/10/14 00:07:19;;;;;;;19.08;12.02;;;;;;;14.22;100.00;100578.03;8319948;28;20136;-51
2022/10/14 00:11:23;;;;;;;22.38;13.85;;;;;;;14.21;100.00;100577.16;8317262;28;20043;-54
2022/10/14 00:15:24;;;;;;;;;;;;;;;14.22;100.00;100581.59;8318649;28;20033;-54
2022/10/14 00:19:24;;;;;;;20.85;13.43;;;;;;;14.15;100.00;100571.53;8319613;28;19927;-54
2022/10/14 00:23:27;;;;;;;26.30;14.00;;;;;;;14.15;100.00;100574.25;8318345;28;20091;-55
2022/10/14 00:27:28;;;;;;;22.75;13.98;;;;;;;14.19;100.00;100572.91;8320815;28;20044;-54
2022/10/14 00:31:28;;;;;;;22.10;14.15;;;;;;;14.20;100.00;100580.03;8320723;28;20047;-51
2022/10/14 00:35:31;;;;;;;21.73;13.82;;;;;;;14.22;100.00;100568.00;8318696;28;20498;-54
2022/10/14 00:39:31;;;;;;;19.92;13.25;;;;;;;14.22;100.00;100573.44;8319121;28;20053;-53
2022/10/14 00:44:10;;;;;;;22.83;13.10;;;;;;;14.22;100.00;100568.00;8347589;28;20491;-52
2022/10/14 00:48:11;;;;;;;21.20;11.82;;;;;;;14.23;100.00;100569.72;8352644;28;20095;-52
2022/10/14 00:52:18;;;;;;;20.17;12.35;;;;;;;14.26;100.00;100566.69;8334086;28;20562;-51
2022/10/14 00:56:25;;;;;;;23.15;12.75;;;;;;;14.24;100.00;100560.53;8320400;28;20514;-53
2022/10/14 01:00:26;;;;;;;17.70;12.10;;;;;;;14.27;100.00;100565.66;8333993;28;20430;-51
2022/10/14 01:04:27;;;;;;;16.67;11.80;;;;;;;14.30;100.00;100569.94;8326567;28;20064;-51
2022/10/14 01:08:38;;;;;;;22.75;12.23;;;;;;;14.29;100.00;100563.63;8335091;28;20088;-51
2022/10/14 01:17:12;;;;;;;23.08;11.48;;;;;;;14.28;100.00;100551.06;8288314;28;20745;-51
2022/10/14 01:30:24;;;;;;;19.75;12.45;;;;;;;14.21;100.00;100528.22;8387381;27;20423;-54
2022/10/14 01:34:37;;;;;;;15.32;10.40;;;;;;;14.21;100.00;100517.31;8379839;28;20040;-55
2022/10/14 01:38:59;;;;;;;16.55;10.95;;;;;;;14.25;100.00;100507.88;8385785;28;20037;-52
2022/10/14 01:43:03;;;;;;;15.55;10.65;;;;;;;14.28;100.00;100501.25;8381344;28;20037;-55
2022/10/14 01:47:07;;;;;;;15.85;10.60;;;;;;;14.29;100.00;100500.22;8385423;28;20029;-53
2022/10/14 01:51:14;;;;;;;15.93;10.83;;;;;;;14.28;100.00;100493.97;8385350;28;20064;-52
2022/10/14 01:55:22;;;;;;;16.67;10.68;;;;;;;14.30;100.00;100494.63;8385450;28;20033;-54
2022/10/14 01:59:24;;;;;;;16.35;10.85;;;;;;;14.30;100.00;100489.19;8383948;28;20036;-53
2022/10/14 02:03:25;;;;;;;15.75;9.95;;;;;;;14.29;100.00;100487.50;8385004;28;20045;-53
2022/10/14 02:07:34;;;;;;;14.07;9.63;;;;;;;14.32;100.00;100487.16;8384491;28;20064;-55
2022/10/14 02:12:04;;;;;;;17.83;10.48;;;;;;;14.31;100.00;100480.03;8384233;28;20041;-54
2022/10/14 02:16:39;;;;;;;12.93;8.75;;;;;;;14.33;100.00;100477.97;8382435;28;20063;-51
2022/10/14 02:20:50;;;;;;;10.55;8.95;;;;;;;14.34;100.00;100467.97;8373698;28;20039;-54
2022/10/14 02:24:54;;;;;;;11.60;8.57;;;;;;;14.38;100.00;100472.91;8384474;28;20047;-52
2022/10/14 02:28:57;;;;;;;12.45;8.65;;;;;;;14.36;100.00;100465.94;8383801;28;20033;-50
2022/10/14 02:33:00;;;;;;;13.88;8.35;;;;;;;14.39;100.00;100471.88;8381255;28;20071;-52
2022/10/14 02:37:02;;;;;;;10.38;7.88;;;;;;;14.40;100.00;100473.59;8378069;28;20498;-50
2022/10/14 02:41:10;;;;;;;12.70;7.70;;;;;;;14.41;100.00;100471.72;8332949;28;20112;-53
2022/10/14 02:45:12;;;;;;;10.55;7.63;;;;;;;14.42;100.00;100460.66;8315453;28;20390;-49
2022/10/14 02:49:13;;;;;;;10.55;7.72;;;;;;;14.39;100.00;100455.56;8331646;28;20029;-49
2022/10/14 02:53:17;;;;;;;12.65;8.02;;;;;;;14.35;100.00;100446.03;8325913;28;20045;-50
2022/10/14 02:57:19;;;;;;;11.82;8.13;;;;;;;14.36;100.00;100452.34;8327676;28;20037;-53
2022/10/14 03:01:20;;;;;;;11.32;7.03;;;;;;;14.38;100.00;100444.84;8333494;28;20074;-49
2022/10/14 03:05:20;;;;;;;9.40;7.30;;;;;;;14.39;100.00;100450.13;8340582;28;20064;-51
2022/10/14 03:09:21;;;;;;;12.07;7.47;;;;;;;14.38;100.00;100448.41;8326780;28;20037;-49
2022/10/14 03:13:23;;;;;;;8.57;6.78;;;;;;;14.42;100.00;100449.78;8324990;28;20445;-51
2022/10/14 03:17:24;;;;;;;7.75;6.07;;;;;;;14.40;100.00;100446.41;8325285;28;20115;-52
2022/10/14 03:21:25;;;;;;;8.70;5.90;;;;;;;14.41;100.00;100434.50;8324880;28;20041;-51
2022/10/14 03:25:27;;;;;;;9.52;4.95;;;;;;;14.40;100.00;100435.53;8326068;28;20052;-50
2022/10/14 03:29:35;;;;;;;7.03;5.15;;;;;;;14.43;100.00;100429.75;8326078;28;20042;-49
2022/10/14 03:33:46;;;;;;;7.78;4.60;;;;;;;14.46;100.00;100426.69;8320822;28;20418;-52
2022/10/14 03:37:53;;;;;;;5.57;4.28;;;;;;;14.45;100.00;100422.25;8325463;28;20125;-51
2022/10/14 03:41:58;;;;;;;7.40;4.00;;;;;;;14.49;100.00;100422.78;8321088;28;20037;-51
2022/10/14 03:46:07;;;;;;;3.90;3.50;;;;;;;14.56;100.00;100419.22;8325281;28;20566;-49
2022/10/14 03:50:08;;;;;;;5.30;3.20;;;;;;;14.57;100.00;100415.47;8324327;28;20430;-51
2022/10/14 03:54:15;;;;;;;6.00;3.80;;;;;;;14.57;100.00;100410.03;8323490;28;20116;-50
2022/10/14 03:58:16;;;;;;;5.80;3.70;;;;;;;14.58;100.00;100414.44;8325995;28;20038;-51
2022/10/14 04:02:23;;;;;;;4.15;3.75;;;;;;;14.51;100.00;100416.13;8320288;28;20537;-50
2022/10/14 04:06:30;;;;;;;4.50;3.10;;;;;;;14.50;100.00;100416.31;8336716;28;20041;-52
2022/10/14 04:10:32;;;;;;;4.00;3.40;;;;;;;14.53;100.00;100414.13;8325781;28;20179;-49
2022/10/14 04:14:33;;;;;;;7.07;3.22;;;;;;;14.53;100.00;100419.56;8316216;28;20033;-51
2022/10/14 04:18:35;;;;;;;3.53;2.95;;;;;;;14.51;100.00;100416.13;8320238;28;20048;-52
2022/10/14 04:22:37;;;;;;;3.45;3.15;;;;;;;14.52;100.00;100412.38;8321813;28;20061;-52
2022/10/14 04:26:39;;;;;;;4.07;3.17;;;;;;;14.53;100.00;100408.66;8321174;28;20044;-53
2022/10/14 04:30:46;;;;;;;6.93;3.25;;;;;;;14.54;100.00;100415.81;8325259;28;20038;-53
2022/10/14 04:34:53;;;;;;;5.07;4.10;;;;;;;14.57;100.00;100415.47;8325301;28;20040;-53
2022/10/14 04:38:57;;;;;;;5.72;3.58;;;;;;;14.58;100.00;100411.72;8321992;28;20447;-51
2022/10/14 04:42:58;;;;;;;4.50;3.97;;;;;;;14.57;100.00;100396.41;8321819;28;20044;-50
2022/10/14 04:47:11;;;;;;;4.50;3.53;;;;;;;14.58;100.00;100400.84;8324266;28;20171;-49
2022/10/14 04:51:13;;;;;;;4.97;3.20;;;;;;;14.61;100.00;100395.06;8324850;28;20052;-50
2022/10/14 04:55:32;;;;;;;3.15;2.67;;;;;;;14.61;100.00;100386.06;8324603;28;20033;-50
2022/10/14 04:59:33;;;;;;;5.10;4.20;;;;;;;14.59;100.00;100385.38;8322290;28;20034;-52
2022/10/14 05:03:54;;;;;;;6.93;4.50;;;;;;;14.61;100.00;100373.28;8324575;28;20495;-50
2022/10/14 05:07:55;;;;;;;3.25;2.10;;;;;;;14.63;100.00;100371.25;8322663;28;20086;-50
2022/10/14 05:12:01;;;;;;;2.53;2.28;;;;;;;14.66;100.00;100360.03;8320727;28;20045;-48
2022/10/14 05:16:12;;;;;;;2.10;1.88;;;;;;;14.68;100.00;100358.00;8324277;28;20034;-50
2022/10/14 05:20:15;;;;;;;2.40;2.20;;;;;;;14.65;100.00;100344.72;8324223;28;20045;-49
2022/10/14 05:24:18;;;;;;;2.53;2.30;;;;;;;14.75;100.00;100361.72;8322576;28;20057;-49
2022/10/14 05:28:20;;;;;;;5.38;2.70;;;;;;;14.75;100.00;100353.56;8321185;28;20049;-49
2022/10/14 05:32:23;;;;;;;3.67;2.60;;;;;;;14.74;100.00;100351.00;8321588;28;20049;-50
2022/10/14 05:36:26;;;;;;;3.67;3.05;;;;;;;14.71;100.00;100357.66;8311645;28;20034;-49
2022/10/14 05:40:27;;;;;;;3.33;2.88;;;;;;;14.72;100.00;100353.91;8316006;28;20095;-49
2022/10/14 05:44:29;;;;;;;4.35;3.60;;;;;;;14.72;100.00;100359.34;8324526;28;20037;-49
2022/10/14 05:48:32;;;;;;;3.78;3.38;;;;;;;14.73;100.00;100355.59;8324241;28;20427;-49
2022/10/14 05:52:34;;;;;;;5.18;4.25;;;;;;;14.70;100.00;100353.22;8323879;28;20128;-49
2022/10/14 05:56:44;;;;;;;7.95;4.70;;;;;;;14.64;100.00;100351.19;8324076;28;20076;-51
2022/10/14 06:00:45;;;;;;;8.10;5.20;;;;;;;14.59;100.00;100341.84;8321957;28;20029;-51
2022/10/14 06:04:50;;;;;;;11.43;6.85;;;;;;;14.52;100.00;100352.53;8323924;28;20120;-49
2022/10/14 06:08:51;;;;;;;11.77;8.07;;;;;;;14.47;100.00;100343.19;8323472;28;20514;-49
2022/10/14 06:12:55;;;;;;;8.60;6.68;;;;;;;14.46;100.00;100347.81;8323247;28;20034;-50
2022/10/14 06:16:56;;;;;;;6.38;5.70;;;;;;;14.47;100.00;100346.78;8330283;28;20392;-54
2022/10/14 06:20:58;;;;;;;10.15;7.68;;;;;;;14.47;100.00;100354.06;8326579;28;20033;-53
2022/10/14 06:24:58;;;;;;;13.43;9.35;;;;;;;14.45;100.00;100334.38;8329742;28;20116;-55
2022/10/14 06:28:59;;;;;;;11.70;8.95;;;;;;;14.43;100.00;100337.25;8325330;28;20128;-53
2022/10/14 06:32:59;;;;;;;9.77;7.28;;;;;;;14.43;100.00;100339.97;8325023;28;20049;-52
2022/10/14 06:37:00;;;;;;;13.32;8.18;;;;;;;14.41;100.00;100328.41;8321522;28;20044;-51
2022/10/14 06:41:01;;;;;;;12.15;8.40;;;;;;;14.44;100.00;100327.22;8328133;28;20029;-52
2022/10/14 06:45:03;;;;;;;8.05;6.70;;;;;;;14.47;100.00;100325.00;8320590;28;20111;-52
2022/10/14 06:49:03;;;;;;;12.88;7.47;;;;;;;14.51;100.00;100318.19;8323883;28;20399;-51
2022/10/14 06:53:04;;;;;;;10.90;8.00;;;;;;;14.53;100.00;100316.16;8327566;28;20060;-50
2022/10/14 06:57:05;;;;;;;9.18;7.70;;;;;;;14.57;100.00;100322.97;8324943;28;20037;-51
2022/10/14 07:01:07;;;;;;;8.13;6.80;;;;;;;14.57;100.00;100317.53;8319827;28;20121;-54
2022/10/14 07:05:08;;;;;;;9.38;6.63;;;;;;;14.60;100.00;100300.84;8328281;28;20040;-50
2022/10/14 07:09:08;;;;;;;6.75;5.40;;;;;;;14.62;100.00;100298.81;8323268;28;20376;-53
2022/10/14 07:13:09;;;;;;;7.43;5.38;;;;;;;14.68;100.00;100303.56;8323778;28;20037;-51
2022/10/14 07:17:09;;;;;;;6.65;5.30;;;;;;;14.72;100.00;100288.59;8318882;28;20045;-51
2022/10/14 07:21:10;;;;;;;9.20;6.35;;;;;;;14.77;100.00;100291.66;8310838;28;20450;-54
2022/10/14 07:25:11;;;;;;;8.18;4.70;;;;;;;14.81;100.00;100282.13;8318746;28;20079;-53
2022/10/14 07:29:12;;;;;;;6.88;4.85;;;;;;;14.86;100.00;100285.19;8312754;28;20138;-52
2022/10/14 07:33:12;;;;;;;6.28;4.70;;;;;;;14.96;100.00;100295.84;8323813;28;20050;-50
2022/10/14 07:37:13;;;;;;;7.10;5.43;;;;;;;14.94;100.00;100293.31;8320373;28;20455;-52
2022/10/14 07:41:17;;;;;;;7.20;5.38;;;;;;;15.01;100.00;100294.28;8321954;28;20777;-53
2022/10/14 07:45:19;;;;;;;6.75;4.88;;;;;;;15.07;100.00;100281.88;8323722;28;20132;-51
2022/10/14 07:49:21;;;;;;;5.15;4.03;;;;;;;15.12;100.00;100280.31;8319594;28;20265;-52
2022/10/14 07:53:24;;;;;;;8.15;5.82;;;;;;;15.22;100.00;100283.69;8319141;28;20114;-52
2022/10/14 07:57:26;;;;;;;7.07;4.85;;;;;;;15.35;100.00;100289.44;8317332;28;20411;-52
2022/10/14 08:01:27;;;;;;;7.70;4.70;;;;;;;15.42;100.00;100285.00;8319465;28;20041;-51
2022/10/14 08:05:28;;;;;;;5.00;4.30;;;;;;;15.46;100.00;100277.31;8317050;28;20041;-54
2022/10/14 08:09:29;;;;;;;7.32;4.85;;;;;;;15.52;100.00;100288.34;8315928;28;20049;-51
2022/10/14 08:13:30;;;;;;;6.55;4.38;;;;;;;15.59;100.00;100283.88;8323200;28;20045;-53
2022/10/14 08:17:31;;;;;;;6.65;5.28;;;;;;;15.65;100.00;100285.91;8317444;28;20037;-50
2022/10/14 08:21:31;;;;;;;6.55;4.53;;;;;;;15.77;100.00;100284.47;8320782;28;20099;-50
2022/10/14 08:25:33;;;;;;;5.47;3.92;;;;;;;15.89;100.00;100284.06;8322184;28;20029;-51
2022/10/14 08:29:33;;;;;;;5.07;3.83;;;;;;;15.93;100.00;100269.91;8318580;28;20121;-50
2022/10/14 08:33:34;;;;;;;6.35;3.90;;;;;;;16.02;100.00;100267.97;8313624;28;20038;-51
2022/10/14 08:37:35;;;;;;;5.35;3.85;;;;;;;16.11;100.00;100272.31;8321527;28;20033;-50
2022/10/14 08:42:15;;;;;;;5.18;4.28;;;;;;;16.18;100.00;100262.38;8321710;28;20041;-51
2022/10/14 08:46:25;;;;;;;6.90;3.78;;;;;;;16.16;100.00;100251.63;8317309;28;20472;-54
2022/10/14 08:50:33;;;;;;;6.18;3.90;;;;;;;16.21;100.00;100246.50;8320474;28;20338;-54
2022/10/14 08:54:38;;;;;;;7.30;4.03;;;;;;;16.29;100.00;100234.66;8318731;28;20041;-54
2022/10/14 08:58:42;;;;;;;3.67;3.38;;;;;;;16.31;100.00;100235.34;8320927;28;20063;-52
2022/10/14 09:02:46;;;;;;;5.10;3.60;;;;;;;16.40;100.00;100239.66;8317556;28;20463;-53
2022/10/14 09:06:49;;;;;;;4.07;3.28;;;;;;;16.50;100.00;100229.38;8315633;28;20040;-52
2022/10/14 09:10:50;;;;;;;5.00;3.97;;;;;;;16.50;100.00;100229.38;8317600;28;20048;-51
2022/10/14 09:15:19;;;;;;;5.38;3.83;;;;;;;16.52;100.00;100227.31;8319505;28;20042;-53
2022/10/14 09:23:36;;;;;;;6.43;4.55;;;;;;;16.52;100.00;100221.84;8389341;27;20795;-52
2022/10/14 09:27:36;;;;;;;8.40;5.38;;;;;;;16.56;100.00;100220.47;8385054;27;20032;-52
2022/10/14 09:31:57;;;;;;;10.23;5.57;;;;;;;16.60;100.00;100224.50;8385239;27;20044;-50
2022/10/14 09:35:58;;;;;;;7.70;5.53;;;;;;;16.67;100.00;100219.97;8408172;27;20055;-49
2022/10/14 09:40:03;;;;;;;8.00;5.47;;;;;;;16.64;100.00;100231.28;8411823;27;20039;-51
2022/10/14 09:44:24;;;;;;;11.52;5.35;;;;;;;16.80;100.00;100225.66;8392344;27;20063;-53
2022/10/14 09:48:47;;;;;;;9.73;5.75;;;;;;;16.89;100.00;100221.78;8388683;27;20036;-51
2022/10/14 09:52:54;;;;;;;7.20;4.85;;;;;;;16.89;100.00;100219.91;8377050;27;20032;-53
2022/10/14 09:57:07;;;;;;;9.52;6.45;;;;;;;16.79;100.00;100213.03;8383414;27;20037;-53
2022/10/14 10:01:15;;;;;;;11.80;6.97;;;;;;;16.81;100.00;100206.34;8409727;27;20040;-52
2022/10/14 10:05:27;;;;;;;12.57;8.00;;;;;;;16.87;100.00;100204.75;8406029;27;20610;-51
2022/10/14 10:09:28;;;;;;;12.73;7.13;;;;;;;16.89;100.00;100197.19;8409284;27;20057;-53
2022/10/14 10:13:34;;;;;;;9.95;7.10;;;;;;;16.78;100.00;100194.97;8393731;27;20066;-50
2022/10/14 10:17:39;;;;;;;8.85;6.40;;;;;;;16.69;100.00;100198.81;8393115;27;20099;-53
2022/10/14 10:21:40;;;;;;;12.00;7.00;;;;;;;16.67;100.00;100189.97;8380745;28;20131;-51
2022/10/14 10:25:40;;;;;;;11.30;6.22;;;;;;;16.70;100.00;100181.41;8390862;27;20037;-51
2022/10/14 10:29:41;;;;;;;8.55;6.22;;;;;;;16.73;100.00;100175.56;8388221;27;20128;-49
2022/10/14 10:34:00;;;;;;;7.90;6.18;;;;;;;16.71;100.00;100172.19;8366115;28;20072;-49
2022/10/14 10:38:22;;;;;;;9.93;5.90;;;;;;;16.74;100.00;100177.28;8358437;28;20032;-49
2022/10/14 10:42:38;;;;;;;7.60;5.97;;;;;;;16.86;100.00;100168.41;8373272;28;20044;-50
2022/10/14 10:47:07;;;;;;;11.40;5.35;;;;;;;17.06;100.00;100168.66;8355244;28;20412;-50
2022/10/14 10:51:13;;;;;;;8.27;4.70;;;;;;;17.26;100.00;100161.59;8358425;28;20040;-49
2022/10/14 11:00:00;;;;;;;8.57;5.18;;;;;;;17.58;100.00;100144.72;8378794;27;21098;-53
2022/10/14 11:04:26;;;;;;;6.93;5.10;;;;;;;17.52;100.00;100150.97;8377209;28;20033;-50
2022/10/14 11:13:40;;;;;;;10.40;5.93;;;;;;;17.23;100.00;100135.47;8375521;27;20033;-53
2022/10/14 11:18:03;;;;;;;8.27;5.75;;;;;;;17.28;100.00;100134.88;8377635;28;20036;-54
2022/10/14 11:22:27;;;;;;;7.13;5.80;;;;;;;17.33;100.00;100132.44;8343441;28;20052;-53
2022/10/14 11:26:57;;;;;;;9.07;6.20;;;;;;;17.33;100.00;100129.72;8372069;27;20059;-53
2022/10/14 11:31:27;;;;;;;8.48;5.90;;;;;;;17.40;100.00;100130.63;8347456;28;20338;-51
2022/10/14 11:35:52;;;;;;;9.70;5.97;;;;;;;17.38;100.00;100116.28;8371963;28;20419;-50
2022/10/14 11:39:59;;;;;;;5.93;5.30;;;;;;;17.53;100.00;100123.44;8377429;28;20558;-49
2022/10/14 11:44:29;;;;;;;6.72;5.07;;;;;;;17.70;100.00;100112.22;8379329;28;20049;-52
2022/10/14 11:48:41;;;;;;;6.03;3.58;;;;;;;17.75;100.00;100091.44;8370349;28;23159;-52
2022/10/14 11:52:57;;;;;;;7.75;5.00;;;;;;;17.67;100.00;100099.81;8331009;28;20040;-51
2022/10/14 11:57:04;;;;;;;6.55;4.97;;;;;;;17.60;100.00;100099.72;8363337;28;20061;-52
2022/10/14 12:01:07;;;;;;;5.80;4.13;;;;;;;17.63;100.00;100101.25;8367300;28;20042;-50
2022/10/14 12:05:29;;;;;;;5.68;3.88;;;;;;;17.45;100.00;100104.41;8368741;28;20460;-53
2022/10/14 12:09:40;;;;;;;5.15;3.58;;;;;;;17.34;100.00;100095.88;8358691;28;20045;-50
2022/10/14 12:13:46;;;;;;;5.65;4.80;;;;;;;17.32;100.00;100087.00;8354259;28;20064;-50
2022/10/14 12:17:52;;;;;;;8.98;5.10;;;;;;;17.29;100.00;100084.66;8355713;28;20036;-52
2022/10/14 12:22:15;;;;;;;7.15;5.43;;;;;;;17.33;100.00;100088.72;8353602;28;20037;-50
2022/10/14 12:30:36;;;;;;;11.02;7.07;;;;;;;17.49;100.00;100072.94;8320599;27;20458;-51
2022/10/14 12:34:39;;;;;;;11.98;7.63;;;;;;;17.57;100.00;100061.03;8314461;28;20727;-52
2022/10/14 12:38:40;;;;;;;14.20;7.50;;;;;;;17.40;100.00;100060.41;8313387;28;20049;-50
2022/10/14 12:46:53;;;;;;;10.02;6.45;;;;;;;17.52;100.00;100063.50;8386368;27;20384;-50
2022/10/14 12:51:07;;;;;;;11.55;7.65;;;;;;;17.41;100.00;100050.31;8378321;27;20115;-51
2022/10/14 12:55:15;;;;;;;9.87;6.77;;;;;;;17.46;100.00;100056.06;8373033;28;20053;-50
2022/10/14 12:59:26;;;;;;;12.15;6.55;;;;;;;17.49;100.00;100044.75;8379022;28;20395;-50
2022/10/14 13:03:32;;;;;;;12.57;7.22;;;;;;;17.49;100.00;100042.00;8378055;28;20068;-53
2022/10/14 13:08:13;;;;;;;10.48;6.57;;;;;;;17.56;100.00;100032.84;8376323;28;20069;-50
2022/10/14 13:20:51;;;;;;;9.25;5.05;;;;;;;17.54;100.00;100017.69;8408490;27;20395;-49
2022/10/14 13:24:52;;;;;;;9.13;5.20;;;;;;;17.87;100.00;100013.28;8416290;28;20055;-50
2022/10/14 13:29:16;;;;;;;4.55;3.72;;;;;;;18.01;100.00;100004.16;8391134;28;20029;-50
2022/10/14 13:33:29;;;;;;;6.30;3.70;;;;;;;18.20;100.00;100013.53;8319764;28;20049;-51
2022/10/14 13:41:46;;;;;;;4.65;3.08;;;;;;;18.27;100.00;100004.28;8295665;28;20648;-51
2022/10/14 13:45:51;;;;;;;5.78;3.50;;;;;;;18.39;100.00;99994.50;8279287;28;20057;-50
2022/10/14 13:49:52;;;;;;;4.88;3.10;;;;;;;18.43;100.00;99998.53;8280284;28;20076;-52
2022/10/14 13:53:57;;;;;;;3.90;3.10;;;;;;;18.41;100.00;99994.28;8276678;28;20125;-50
2022/10/14 13:58:00;;;;;;;4.05;2.78;;;;;;;18.36;100.00;99996.78;8273557;28;20045;-50
2022/10/14 14:02:02;;;;;;;4.87;3.00;;;;;;;18.41;100.00;100000.63;8277007;28;20133;-51
2022/10/14 14:06:11;;;;;;;6.30;3.50;;;;;;;18.47;100.00;99997.06;8271094;28;20061;-50
2022/10/14 14:10:18;;;;;;;1.13;0.90;;;;;;;18.48;100.00;100006.97;8278956;28;20034;-50
2022/10/14 14:14:23;;;;;;;0.73;0.68;;;;;;;18.45;100.00;100001.06;8278634;28;20129;-50
2022/10/14 14:18:34;;;;;;;1.80;1.00;;;;;;;18.43;100.00;100004.00;8278018;28;20040;-50
2022/10/14 14:22:42;;;;;;;2.95;0.90;;;;;;;18.25;100.00;99998.19;8276645;28;20042;-51
2022/10/14 14:26:43;;;;;;;2.60;1.02;;;;;;;18.13;100.00;99999.81;8278950;28;20515;-50
2022/10/14 14:30:50;;;;;;;1.52;1.00;;;;;;;18.03;100.00;99980.19;8273247;28;20443;-51
2022/10/14 14:34:51;;;;;;;1.77;1.00;;;;;;;18.02;100.00;99983.13;8279844;28;20042;-50
2022/10/14 14:39:00;;;;;;;1.77;1.13;;;;;;;18.12;100.00;99989.06;8278878;28;20502;-50
2022/10/14 14:43:03;;;;;;;1.95;0.90;;;;;;;18.17;100.00;99984.66;8277871;28;20050;-50
2022/10/14 14:47:04;;;;;;;1.63;0.80;;;;;;;18.19;100.00;99988.06;8278319;28;20061;-50
2022/10/14 14:51:11;;;;;;;3.28;1.20;;;;;;;18.22;100.00;99976.69;8266463;28;20496;-50
2022/10/14 14:55:54;;;;;;;1.60;0.80;;;;;;;18.22;100.00;99973.97;8252544;28;20109;-51
2022/10/14 15:00:01;;;;;;;0.85;0.80;;;;;;;18.20;100.00;99959.63;8251195;28;20084;-50
2022/10/14 15:04:07;;;;;;;2.60;1.45;;;;;;;18.21;100.00;99955.84;8254143;28;20582;-53
2022/10/14 15:08:21;;;;;;;1.83;1.20;;;;;;;18.23;100.00;99958.38;8248795;28;20073;-53
2022/10/14 15:12:29;;;;;;;1.50;0.80;;;;;;;18.23;100.00;99948.28;8248194;28;20042;-50
2022/10/14 15:16:40;;;;;;;1.50;0.88;;;;;;;18.21;100.00;99939.41;8238639;28;20403;-53
2022/10/14 15:20:42;;;;;;;1.92;1.30;;;;;;;18.20;100.00;99948.69;8249031;28;20073;-50
2022/10/14 15:25:03;;;;;;;1.63;0.60;;;;;;;18.20;100.00;99948.69;8244661;28;20074;-52
2022/10/14 15:29:13;;;;;;;3.13;1.52;;;;;;;18.14;100.00;99940.47;8248486;28;20046;-51
2022/10/14 15:33:23;;;;;;;4.95;1.70;;;;;;;18.05;100.00;99938.94;8255494;28;20038;-50
2022/10/14 15:37:24;;;;;;;1.83;1.50;;;;;;;17.96;100.00;99931.94;8244860;28;20034;-52
2022/10/14 15:41:25;;;;;;;2.45;0.80;;;;;;;17.95;100.00;99931.09;8249623;28;20526;-52
2022/10/14 15:45:26;;;;;;;0.98;0.90;;;;;;;17.94;100.00;99931.28;8254927;28;20042;-50
2022/10/14 15:49:40;;;;;;;1.43;0.80;;;;;;;17.93;100.00;99929.63;8252670;28;20038;-50
2022/10/14 15:53:41;;;;;;;2.28;1.10;;;;;;;17.95;100.00;99928.34;8245699;28;20121;-52
2022/10/14 15:57:41;;;;;;;4.90;1.10;;;;;;;17.90;100.00;99919.91;8252870;28;20053;-53
2022/10/14 16:01:43;;;;;;;15.65;4.70;;;;;;;17.91;100.00;99924.34;8236637;28;20054;-50
2022/10/14 16:05:44;;;;;;;2.83;1.55;;;;;;;17.85;100.00;99908.75;8248513;28;20402;-54
2022/10/14 16:09:47;;;;;;;3.08;1.55;;;;;;;17.83;100.00;99905.34;8253609;28;20042;-53
2022/10/14 16:13:48;;;;;;;4.22;1.38;;;;;;;17.73;100.00;99913.09;8251616;28;20703;-52
2022/10/14 16:17:48;;;;;;;2.22;1.25;;;;;;;17.68;100.00;99917.47;8252878;28;20407;-54
2022/10/14 16:21:49;;;;;;;2.42;1.50;;;;;;;17.57;100.00;99916.16;8250714;28;20054;-51
2022/10/14 16:25:51;;;;;;;2.13;1.13;;;;;;;17.61;100.00;99917.44;8229365;28;20062;-51
2022/10/14 16:29:52;;;;;;;1.20;0.98;;;;;;;17.59;100.00;99905.84;8250286;28;20413;-53
2022/10/14 16:33:53;;;;;;;4.40;1.55;;;;;;;17.64;100.00;99917.03;8246465;28;20574;-52
2022/10/14 16:37:56;;;;;;;2.83;1.90;;;;;;;17.63;100.00;99909.03;8229583;28;20039;-52
2022/10/14 16:41:58;;;;;;;2.35;2.15;;;;;;;17.59;100.00;99911.31;8225303;28;20469;-53
2022/10/14 16:46:02;;;;;;;7.03;3.25;;;;;;;17.57;100.00;99902.47;8243484;28;20066;-54
2022/10/14 16:50:04;;;;;;;2.80;2.10;;;;;;;17.58;100.00;99905.00;8251893;28;20030;-53
2022/10/14 16:54:04;;;;;;;4.07;1.98;;;;;;;17.50;100.00;99904.31;8219514;28;20488;-53
2022/10/14 16:58:05;;;;;;;6.57;3.40;;;;;;;17.44;100.00;99902.38;8227406;28;20185;-51
2022/10/14 17:02:09;;;;;;;3.50;2.50;;;;;;;17.23;100.00;99911.44;8229288;28;20054;-50
2022/10/14 17:06:10;;;;;;;;;;;;;;;17.16;100.00;99915.16;8224998;28;20464;-51
2022/10/14 17:10:11;;;;;;;3.83;1.10;;;;;;;17.07;100.00;99916.31;8240080;28;19929;-50
2022/10/14 17:14:14;;;;;;;1.48;1.30;;;;;;;16.92;100.00;99915.56;8221178;28;20062;-50
2022/10/14 17:18:15;;;;;;;1.80;1.47;;;;;;;16.65;100.00;99919.09;8239295;28;20034;-50
2022/10/14 17:22:18;;;;;;;2.22;1.35;;;;;;;16.57;100.00;99919.19;8223159;28;20100;-50
2022/10/14 17:26:19;;;;;;;2.63;1.25;;;;;;;16.50;100.00;99901.91;8231808;28;20564;-49
2022/10/14 17:30:20;;;;;;;1.98;1.80;;;;;;;16.53;100.00;99898.81;8220124;28;20440;-53
2022/10/14 17:34:22;;;;;;;6.50;1.85;;;;;;;16.53;100.00;99901.53;8227101;28;20042;-49
2022/10/14 17:38:24;;;;;;;6.57;3.60;;;;;;;16.56;100.00;99885.59;8221670;28;20574;-50
2022/10/14 17:42:24;;;;;;;5.85;3.97;;;;;;;16.71;100.00;99889.13;8209612;28;20098;-52
2022/10/14 17:46:28;;;;;;;5.30;2.50;;;;;;;16.65;100.00;99889.06;8214392;28;20114;-50
2022/10/14 17:50:29;;;;;;;4.50;3.78;;;;;;;16.52;100.00;99899.81;8204240;28;20035;-53
2022/10/14 17:54:30;;;;;;;4.13;3.00;;;;;;;16.64;100.00;99910.03;8219111;28;20130;-49
2022/10/14 17:58:31;;;;;;;3.97;2.60;;;;;;;16.73;100.00;99900.69;8222393;28;20387;-54
2022/10/14 18:02:31;;;;;;;3.80;2.58;;;;;;;16.77;100.00;99898.44;8224550;28;20108;-50
2022/10/14 18:06:34;;;;;;;5.75;3.45;;;;;;;16.79;100.00;99901.78;8225704;28;20038;-50
2022/10/14 18:10:36;;;;;;;3.58;3.00;;;;;;;16.84;100.00;99910.25;8244551;28;20050;-49
2022/10/14 18:14:39;;;;;;;17.98;15.13;;;;;;;16.86;100.00;99919.94;8228519;28;20031;-50
2022/10/14 18:18:40;;;;;;;13.57;11.32;;;;;;;16.81;100.00;99916.91;8226497;28;20063;-50
2022/10/14 18:22:41;;;;;;;9.13;8.13;;;;;;;16.79;100.00;99907.25;8233795;28;20097;-51
2022/10/14 18:26:42;;;;;;;4.40;4.00;;;;;;;16.80;100.00;99914.41;8223469;28;20129;-52
2022/10/14 18:30:42;;;;;;;4.40;4.00;;;;;;;16.78;100.00;99911.88;8236360;28;20039;-49
2022/10/14 18:34:43;;;;;;;4.72;4.22;;;;;;;16.74;100.00;99905.09;8243282;28;20278;-50
2022/10/14 18:38:49;;;;;;;5.28;4.15;;;;;;;16.69;100.00;99895.81;8240101;28;20035;-49
2022/10/14 18:42:56;;;;;;;4.78;3.90;;;;;;;16.64;100.00;99884.63;8245032;28;20109;-49
2022/10/14 18:46:58;;;;;;;3.80;3.15;;;;;;;16.50;100.00;99885.53;8237368;28;20476;-50
2022/10/14 18:50:59;;;;;;;6.45;3.05;;;;;;;16.33;100.00;99875.88;8248540;28;20046;-54
2022/10/14 18:55:00;;;;;;;3.65;2.45;;;;;;;16.38;100.00;99881.59;8256483;28;20046;-51
2022/10/14 18:59:05;;;;;;;3.22;2.88;;;;;;;16.32;100.00;99874.19;8239532;28;20594;-50
2022/10/14 19:03:06;;;;;;;2.92;2.40;;;;;;;16.28;100.00;99867.44;8224675;28;20038;-50
2022/10/14 19:07:07;;;;;;;4.95;2.80;;;;;;;16.27;100.00;99868.44;8235467;28;20039;-50
2022/10/14 19:11:17;;;;;;;5.03;3.42;;;;;;;16.18;100.00;99864.16;8229112;28;20031;-52
2022/10/14 19:15:18;;;;;;;3.50;3.20;;;;;;;16.19;100.00;99872.13;8239896;28;20118;-50
2022/10/14 19:19:19;;;;;;;6.65;3.80;;;;;;;16.23;100.00;99873.47;8238825;28;20046;-50
2022/10/14 19:23:20;;;;;;;3.88;3.47;;;;;;;16.28;100.00;99876.44;8247457;28;20070;-52
2022/10/14 19:27:20;;;;;;;4.15;3.33;;;;;;;16.19;100.00;99874.03;8249979;28;20508;-53
2022/10/14 19:31:24;;;;;;;4.07;3.67;;;;;;;16.14;100.00;99873.75;8253827;28;20277;-50
2022/10/14 19:35:25;;;;;;;5.68;3.67;;;;;;;16.18;100.00;99870.47;8239041;28;20041;-50
2022/10/14 19:39:25;;;;;;;4.95;3.70;;;;;;;16.12;100.00;99870.38;8249800;28;20038;-51